Ballinamallard, United Kingdom
Current Conditions -  °F | °C
As of 7:30 PM on Monday 20 Oct 2014 (Local Time) from EISG Reporting Station
Clear Clear  
Wind Chill: 13°   Ceiling: Unl
Heat Index: 13°   Visibility: 6mi
Dew Point: 10°   Wind: 10mph
Humidity: 82%   Direction: 170°S
Pressure: 29.5"   Gusts: NA
Location:  54.4°N, 7.58°W
Report Text: EISG 201830Z 17009KT 130V200 CAVOK 13/10 Q0999
Loading
Personal Weather Stations






























Interactive Weather Map
Tropical Storm Tracking
New forecast layout! Learn more

10-Day Weather Forecast

Advertisements
Track Severe Weather on mobile